Time;durP1;ratioP1;P1;durP2;ratioP2;P2;SDS_P1;SDS_P2;PMS_P1;PMS_P2;Temp;Humidity;BMP_temperature;BMP_pressure;BME280_temperature;BME280_humidity;BME280_pressure;Samples;Min_cycle;Max_cycle;Signal;HPM_P1;HPM_P2
2022/08/21 00:01:33;;;;;;;1.20;0.65;;;;;;;-145.06;100.00;60892.56;4832537;28;20038;-87
2022/08/21 00:04:12;;;;;;;0.60;0.60;;;;;;;-145.06;100.00;60892.56;4839283;28;20057;-86
2022/08/21 00:06:52;;;;;;;1.70;0.90;;;;;;;-145.06;100.00;60892.56;4833740;28;20381;-86
2022/08/21 00:09:32;;;;;;;1.52;0.70;;;;;;;-145.06;100.00;60892.56;4828427;28;20085;-87
2022/08/21 00:12:10;;;;;;;1.05;0.73;;;;;;;-145.06;100.00;60892.56;4836917;28;20030;-87
2022/08/21 00:14:50;;;;;;;1.27;0.60;;;;;;;-145.06;100.00;60892.56;4836758;28;20037;-86
2022/08/21 00:17:29;;;;;;;1.40;0.85;;;;;;;-145.06;100.00;60892.56;4831268;28;20618;-86
2022/08/21 00:20:10;;;;;;;1.15;0.82;;;;;;;-145.06;100.00;60892.56;4836758;28;20038;-87
2022/08/21 00:22:49;;;;;;;1.00;0.80;;;;;;;-145.06;100.00;60892.56;4833687;28;20117;-86
2022/08/21 00:25:28;;;;;;;1.58;1.00;;;;;;;-145.06;100.00;60892.56;4836829;28;20034;-87
2022/08/21 00:28:08;;;;;;;1.92;1.00;;;;;;;-145.06;100.00;60892.56;4832888;28;20432;-86
2022/08/21 00:30:46;;;;;;;2.57;1.03;;;;;;;-145.06;100.00;60892.56;4835082;28;20030;-87
2022/08/21 00:33:26;;;;;;;1.25;0.90;;;;;;;-145.06;100.00;60892.56;4843117;28;20046;-88
2022/08/21 00:36:05;;;;;;;1.17;0.88;;;;;;;-145.06;100.00;60892.56;4839342;28;20033;-86
2022/08/21 00:38:44;;;;;;;1.55;0.80;;;;;;;-145.06;100.00;60892.56;4833300;28;20536;-87
2022/08/21 00:41:24;;;;;;;1.17;0.80;;;;;;;-145.06;100.00;60892.56;4833171;28;20104;-87
2022/08/21 00:44:04;;;;;;;1.10;0.90;;;;;;;-145.06;100.00;60892.56;4834301;28;20281;-86
2022/08/21 00:46:43;;;;;;;1.60;1.00;;;;;;;-145.06;100.00;60892.56;4833506;28;20046;-87
2022/08/21 00:49:23;;;;;;;1.20;0.80;;;;;;;-145.06;100.00;60892.56;4832029;28;20385;-87
2022/08/21 00:52:03;;;;;;;1.13;0.90;;;;;;;-145.06;100.00;60892.56;4835149;28;20030;-87
2022/08/21 00:54:43;;;;;;;1.48;0.93;;;;;;;-145.06;100.00;60892.56;4830148;28;20500;-87
2022/08/21 00:57:28;;;;;;;1.30;0.88;;;;;;;-145.06;100.00;60892.56;4835346;28;20125;-87
2022/08/21 01:00:11;;;;;;;1.33;0.68;;;;;;;-145.06;100.00;60892.56;4858458;28;20480;-86
2022/08/21 01:02:50;;;;;;;1.48;0.70;;;;;;;-145.06;100.00;60892.56;4837717;28;20120;-87
2022/08/21 01:05:29;;;;;;;1.33;0.80;;;;;;;-145.06;100.00;60892.56;4839689;28;20033;-87
2022/08/21 01:08:10;;;;;;;1.98;0.90;;;;;;;-145.06;100.00;60892.56;4835030;28;20356;-87
2022/08/21 01:10:51;;;;;;;1.73;0.90;;;;;;;-145.06;100.00;60892.56;4833838;28;20025;-86
2022/08/21 01:13:34;;;;;;;1.00;0.70;;;;;;;-145.06;100.00;60892.56;4829225;28;20025;-86
2022/08/21 01:16:18;;;;;;;1.10;0.70;;;;;;;-145.06;100.00;60892.56;4838576;28;20034;-87
2022/08/21 01:18:57;;;;;;;1.15;0.88;;;;;;;-145.06;100.00;60892.56;4845566;28;20085;-87
2022/08/21 01:21:36;;;;;;;1.95;1.33;;;;;;;-145.06;100.00;60892.56;4840428;28;20248;-87
2022/08/21 01:24:15;;;;;;;1.60;0.80;;;;;;;-145.06;100.00;60892.56;4831349;28;20038;-88
2022/08/21 01:26:54;;;;;;;2.17;0.88;;;;;;;-145.06;100.00;60892.56;4834471;28;20030;-86
2022/08/21 01:29:36;;;;;;;1.50;0.70;;;;;;;-145.06;100.00;60892.56;4823192;28;20041;-87
2022/08/21 01:32:17;;;;;;;1.20;0.82;;;;;;;-145.06;100.00;60892.56;4830381;28;20034;-87
2022/08/21 01:34:56;;;;;;;0.70;0.55;;;;;;;-145.06;100.00;60892.56;4831126;28;20033;-87
2022/08/21 01:37:35;;;;;;;1.27;0.70;;;;;;;-145.06;100.00;60892.56;4827950;28;20054;-87
2022/08/21 01:40:16;;;;;;;1.17;0.80;;;;;;;-145.06;100.00;60892.56;4831053;28;20046;-87
2022/08/21 01:42:55;;;;;;;1.42;0.60;;;;;;;-145.06;100.00;60892.56;4836092;28;20437;-88
2022/08/21 01:45:34;;;;;;;0.57;0.55;;;;;;;-145.06;100.00;60892.56;4827340;28;20112;-87
2022/08/21 01:48:13;;;;;;;2.03;0.80;;;;;;;-145.06;100.00;60892.56;4825343;28;20034;-87
2022/08/21 01:50:52;;;;;;;2.25;0.80;;;;;;;-145.06;100.00;60892.56;4864081;28;20292;-87
2022/08/21 01:53:35;;;;;;;1.77;0.70;;;;;;;-145.06;100.00;60892.56;4828563;28;20053;-87
2022/08/21 01:56:16;;;;;;;1.67;0.80;;;;;;;-145.06;100.00;60892.56;4835178;28;20021;-87
2022/08/21 01:58:55;;;;;;;1.10;0.60;;;;;;;-145.06;100.00;60892.56;4831601;28;20038;-87
2022/08/21 02:01:33;;;;;;;1.40;0.77;;;;;;;-145.06;100.00;60892.56;4832412;28;20033;-87
2022/08/21 02:04:12;;;;;;;1.03;0.67;;;;;;;-145.06;100.00;60892.56;4828147;28;20065;-87
2022/08/21 02:06:52;;;;;;;0.80;0.60;;;;;;;-145.06;100.00;60892.56;4820749;28;20489;-87
2022/08/21 02:09:31;;;;;;;1.30;0.70;;;;;;;-145.06;100.00;60892.56;4826850;28;20041;-87
2022/08/21 02:12:11;;;;;;;0.97;0.63;;;;;;;-145.06;100.00;60892.56;4834876;28;20033;-86
2022/08/21 02:14:50;;;;;;;;;;;;;;;-145.06;100.00;60892.56;4831949;28;20841;-86
2022/08/21 02:17:47;;;;;;;0.88;0.60;;;;;;;-145.06;100.00;60892.56;4835003;28;19921;-86
2022/08/21 02:20:36;;;;;;;1.13;0.73;;;;;;;-145.06;100.00;60892.56;4830076;28;20042;-86
2022/08/21 02:23:15;;;;;;;1.73;0.80;;;;;;;-145.06;100.00;60892.56;4861274;28;20045;-87
2022/08/21 02:26:00;;;;;;;0.88;0.60;;;;;;;-145.06;100.00;60892.56;4833913;28;20955;-87
2022/08/21 02:28:42;;;;;;;0.90;0.70;;;;;;;-145.06;100.00;60892.56;4837094;28;20041;-86
2022/08/21 02:31:21;;;;;;;0.47;0.47;;;;;;;-145.06;100.00;60892.56;4836942;28;20034;-87
2022/08/21 02:34:00;;;;;;;1.58;0.70;;;;;;;-145.06;100.00;60892.56;4830229;28;20357;-86
2022/08/21 02:36:39;;;;;;;0.88;0.63;;;;;;;-145.06;100.00;60892.56;4826774;28;20034;-89
2022/08/21 02:39:18;;;;;;;0.77;0.57;;;;;;;-145.06;100.00;60892.56;4819107;28;20041;-87
2022/08/21 02:41:57;;;;;;;1.10;0.52;;;;;;;-145.06;100.00;60892.56;4830903;28;20615;-86
2022/08/21 02:44:36;;;;;;;0.70;0.47;;;;;;;-145.06;100.00;60892.56;4825057;28;20105;-87
2022/08/21 02:47:15;;;;;;;1.35;0.70;;;;;;;-145.06;100.00;60892.56;4827764;28;20029;-87
2022/08/21 02:49:54;;;;;;;1.13;0.60;;;;;;;-145.06;100.00;60892.56;4828685;28;20038;-86
2022/08/21 02:52:34;;;;;;;1.20;0.80;;;;;;;-145.06;100.00;60892.56;4827927;28;20276;-86
2022/08/21 02:55:13;;;;;;;;;;;;;;;-145.06;100.00;60892.56;4833278;28;20029;-86
2022/08/21 02:57:53;;;;;;;0.88;0.52;;;;;;;-145.06;100.00;60892.56;4833899;28;20004;-87
2022/08/21 03:00:34;;;;;;;1.40;0.45;;;;;;;-145.06;100.00;60892.56;4830507;28;20034;-87
2022/08/21 03:03:14;;;;;;;0.82;0.50;;;;;;;-145.06;100.00;60892.56;4833854;28;20037;-87
2022/08/21 03:05:53;;;;;;;0.90;0.55;;;;;;;-145.06;100.00;60892.56;4832095;28;20030;-86
2022/08/21 03:08:33;;;;;;;1.05;0.50;;;;;;;-145.06;100.00;60892.56;4831450;28;20037;-87
2022/08/21 03:11:13;;;;;;;0.90;0.60;;;;;;;-145.06;100.00;60892.56;4856005;28;20631;-87
2022/08/21 03:13:52;;;;;;;1.13;0.63;;;;;;;-145.06;100.00;60892.56;4829057;28;20387;-87
2022/08/21 03:16:31;;;;;;;1.25;0.55;;;;;;;-145.06;100.00;60892.56;4840818;28;20029;-87
2022/08/21 03:19:10;;;;;;;0.70;0.60;;;;;;;-145.06;100.00;60892.56;4831438;28;20045;-87
2022/08/21 03:21:49;;;;;;;0.80;0.70;;;;;;;-145.06;100.00;60892.56;4828146;28;20038;-87
2022/08/21 03:24:28;;;;;;;0.90;0.70;;;;;;;-145.06;100.00;60892.56;4827653;28;20031;-86
2022/08/21 03:27:07;;;;;;;1.87;0.80;;;;;;;-145.06;100.00;60892.56;4827418;28;20026;-86
2022/08/21 03:29:46;;;;;;;0.63;0.57;;;;;;;-145.06;100.00;60892.56;4825786;28;20038;-87
2022/08/21 03:32:25;;;;;;;1.52;0.60;;;;;;;-145.06;100.00;60892.56;4834589;28;20041;-87
2022/08/21 03:35:04;;;;;;;0.70;0.60;;;;;;;-145.06;100.00;60892.56;4839480;28;20472;-88
2022/08/21 03:37:44;;;;;;;1.30;0.70;;;;;;;-145.06;100.00;60892.56;4837799;28;20041;-87
2022/08/21 03:40:24;;;;;;;0.65;0.50;;;;;;;-145.06;100.00;60892.56;4836391;28;20041;-87
2022/08/21 03:43:04;;;;;;;;;;;;;;;-145.06;100.00;60892.56;4834864;28;20396;-87
2022/08/21 03:45:43;;;;;;;0.40;0.40;;;;;;;-145.06;100.00;60892.56;4826039;28;19921;-88
2022/08/21 03:48:22;;;;;;;2.47;0.60;;;;;;;-145.06;100.00;60892.56;4829893;28;20046;-87
2022/08/21 03:51:02;;;;;;;1.02;0.52;;;;;;;-145.06;100.00;60892.56;4829744;28;20034;-87
2022/08/21 03:53:41;;;;;;;;;;;;;;;-145.06;100.00;60892.56;4833394;28;20066;-87
2022/08/21 03:56:20;;;;;;;0.50;0.40;;;;;;;-145.06;100.00;60892.56;4839778;28;19917;-88
2022/08/21 03:58:59;;;;;;;0.67;0.50;;;;;;;-145.06;100.00;60892.56;4842811;28;20038;-87
2022/08/21 04:01:38;;;;;;;0.60;0.50;;;;;;;-145.06;100.00;60892.56;4832580;28;20721;-86
2022/08/21 04:04:18;;;;;;;1.20;0.70;;;;;;;-145.06;100.00;60892.56;4832053;28;20025;-87
2022/08/21 04:06:57;;;;;;;1.48;0.55;;;;;;;-145.06;100.00;60892.56;4839529;28;20370;-86
2022/08/21 04:09:36;;;;;;;1.33;0.70;;;;;;;-145.06;100.00;60892.56;4835345;28;20030;-87
2022/08/21 04:12:15;;;;;;;1.30;0.60;;;;;;;-145.06;100.00;60892.56;4838747;28;20041;-88
2022/08/21 04:14:54;;;;;;;0.68;0.40;;;;;;;-145.06;100.00;60892.56;4833385;28;20121;-87
2022/08/21 04:17:34;;;;;;;0.82;0.47;;;;;;;-145.06;100.00;60892.56;4836733;28;20033;-87
2022/08/21 04:20:14;;;;;;;0.70;0.57;;;;;;;-145.06;100.00;60892.56;4837855;28;20037;-86
2022/08/21 04:22:53;;;;;;;;;;;;;;;-145.06;100.00;60892.56;4849196;28;20038;-87
2022/08/21 04:25:32;;;;;;;0.90;0.60;;;;;;;-145.06;100.00;60892.56;4847931;28;19914;-87
2022/08/21 04:28:11;;;;;;;2.00;0.77;;;;;;;-145.06;100.00;60892.56;4828156;28;20023;-86
2022/08/21 04:30:52;;;;;;;0.98;0.45;;;;;;;-145.06;100.00;60892.56;4833314;28;20136;-86
2022/08/21 04:33:31;;;;;;;1.52;0.65;;;;;;;-145.06;100.00;60892.56;4831684;28;20116;-87
2022/08/21 04:36:11;;;;;;;1.23;0.60;;;;;;;-145.06;100.00;60892.56;4839797;28;20030;-87
2022/08/21 04:38:50;;;;;;;1.25;0.68;;;;;;;-145.06;100.00;60892.56;4829550;28;20057;-87
2022/08/21 04:41:29;;;;;;;0.43;0.40;;;;;;;-145.06;100.00;60892.56;4830368;28;20029;-87
2022/08/21 04:44:08;;;;;;;0.47;0.43;;;;;;;-145.06;100.00;60892.56;4829895;28;20027;-87
2022/08/21 04:46:47;;;;;;;1.05;0.60;;;;;;;-145.06;100.00;60892.56;4827057;28;20509;-87
2022/08/21 04:49:26;;;;;;;0.85;0.47;;;;;;;-145.06;100.00;60892.56;4831421;28;20042;-86
2022/08/21 04:52:05;;;;;;;0.60;0.60;;;;;;;-145.06;100.00;60892.56;4835933;28;20034;-87
2022/08/21 04:54:47;;;;;;;0.77;0.50;;;;;;;-145.06;100.00;60892.56;4834786;28;20030;-87
2022/08/21 04:57:26;;;;;;;1.00;0.70;;;;;;;-145.06;100.00;60892.56;4860888;28;20533;-88
2022/08/21 05:00:06;;;;;;;0.50;0.43;;;;;;;-145.06;100.00;60892.56;4823668;28;20480;-87
2022/08/21 05:02:47;;;;;;;0.77;0.50;;;;;;;-145.06;100.00;60892.56;4827776;28;20038;-86
2022/08/21 05:05:29;;;;;;;0.50;0.35;;;;;;;-145.06;100.00;60892.56;4838516;28;20484;-87
2022/08/21 05:08:12;;;;;;;0.47;0.40;;;;;;;-145.06;100.00;60892.56;4838906;28;20033;-87
2022/08/21 05:10:51;;;;;;;0.47;0.40;;;;;;;-145.06;100.00;60892.56;4826132;28;20662;-87
2022/08/21 05:13:31;;;;;;;1.20;0.65;;;;;;;-145.06;100.00;60892.56;4831479;28;20124;-87
2022/08/21 05:16:11;;;;;;;0.68;0.60;;;;;;;-145.06;100.00;60892.56;4832148;28;20041;-88
2022/08/21 05:18:51;;;;;;;0.80;0.52;;;;;;;-145.06;100.00;60892.56;4834846;28;20495;-87
2022/08/21 05:21:30;;;;;;;;;;;;;;;-145.06;100.00;60892.56;4831387;28;20539;-86
2022/08/21 05:24:10;;;;;;;0.60;0.50;;;;;;;-145.06;100.00;60892.56;4834506;28;19913;-87
2022/08/21 05:26:49;;;;;;;1.05;0.40;;;;;;;-145.06;100.00;60892.56;4829258;28;20113;-86
2022/08/21 05:29:31;;;;;;;0.70;0.43;;;;;;;-145.06;100.00;60892.56;4826362;28;20029;-86
2022/08/21 05:32:14;;;;;;;0.73;0.38;;;;;;;-145.06;100.00;60892.56;4831701;28;20497;-87
2022/08/21 05:34:53;;;;;;;2.55;0.32;;;;;;;-145.06;100.00;60892.56;4835247;28;20033;-86
2022/08/21 05:37:32;;;;;;;1.58;0.50;;;;;;;-145.06;100.00;60892.56;4838990;28;20604;-87
2022/08/21 05:40:11;;;;;;;0.52;0.32;;;;;;;-145.06;100.00;60892.56;4837472;28;20377;-86
2022/08/21 05:42:51;;;;;;;0.70;0.30;;;;;;;-145.06;100.00;60892.56;4831829;28;20792;-87
2022/08/21 05:45:32;;;;;;;0.43;0.30;;;;;;;-145.06;100.00;60892.56;4844474;28;20080;-87
2022/08/21 05:48:13;;;;;;;0.40;0.30;;;;;;;-145.06;100.00;60892.56;4836593;28;20476;-88
2022/08/21 05:50:52;;;;;;;0.57;0.40;;;;;;;-145.06;100.00;60892.56;4832037;28;20116;-86
2022/08/21 05:53:32;;;;;;;0.50;0.30;;;;;;;-145.06;100.00;60892.56;4835064;28;20025;-86
2022/08/21 05:56:12;;;;;;;1.27;0.40;;;;;;;-145.06;100.00;60892.56;4826581;28;20026;-86
2022/08/21 05:58:51;;;;;;;1.02;0.47;;;;;;;-145.06;100.00;60892.56;4831280;28;20038;-86
2022/08/21 06:01:30;;;;;;;0.87;0.30;;;;;;;-145.06;100.00;60892.56;4817248;28;20034;-86
2022/08/21 06:04:10;;;;;;;0.63;0.50;;;;;;;-145.06;100.00;60892.56;4857548;28;20026;-86
2022/08/21 06:06:49;;;;;;;0.77;0.50;;;;;;;-145.06;100.00;60892.56;4833698;28;20356;-87
2022/08/21 06:09:28;;;;;;;1.40;0.50;;;;;;;-145.06;100.00;60892.56;4833822;28;20501;-86
2022/08/21 06:12:11;;;;;;;0.90;0.43;;;;;;;-145.06;100.00;60892.56;4829326;28;20273;-87
2022/08/21 06:14:51;;;;;;;1.20;0.60;;;;;;;-145.06;100.00;60892.56;4828176;28;20361;-87
2022/08/21 06:17:30;;;;;;;0.82;0.45;;;;;;;-145.06;100.00;60892.56;4830865;28;20022;-87
2022/08/21 06:20:09;;;;;;;0.88;0.40;;;;;;;-145.06;100.00;60892.56;4833102;28;20026;-86
2022/08/21 06:22:49;;;;;;;1.45;0.57;;;;;;;-145.06;100.00;60892.56;4826717;28;20034;-89
2022/08/21 06:25:28;;;;;;;0.95;0.40;;;;;;;-145.06;100.00;60892.56;4834320;28;20030;-87
2022/08/21 06:28:09;;;;;;;0.85;0.50;;;;;;;-145.06;100.00;60892.56;4832821;28;20033;-87
2022/08/21 06:30:48;;;;;;;0.50;0.40;;;;;;;-145.06;100.00;60892.56;4833674;28;20033;-87
2022/08/21 06:33:27;;;;;;;0.73;0.40;;;;;;;-145.06;100.00;60892.56;4833086;28;20034;-87
2022/08/21 06:36:06;;;;;;;0.60;0.40;;;;;;;-145.06;100.00;60892.56;4831615;28;20456;-87
2022/08/21 06:38:45;;;;;;;0.60;0.30;;;;;;;-145.06;100.00;60892.56;4830259;28;20033;-87
2022/08/21 06:41:25;;;;;;;0.40;0.40;;;;;;;-145.06;100.00;60892.56;4829471;28;20038;-87
2022/08/21 06:44:04;;;;;;;0.50;0.40;;;;;;;-145.06;100.00;60892.56;4830807;28;20034;-86
2022/08/21 06:46:43;;;;;;;0.63;0.30;;;;;;;-145.06;100.00;60892.56;4833233;28;20041;-87
2022/08/21 06:49:23;;;;;;;0.68;0.20;;;;;;;-145.06;100.00;60892.56;4829296;28;20041;-87
2022/08/21 06:52:02;;;;;;;0.43;0.30;;;;;;;-145.06;100.00;60892.56;4832717;28;20113;-89
2022/08/21 06:54:42;;;;;;;1.02;0.30;;;;;;;-145.06;100.00;60892.56;4834243;28;20034;-87
2022/08/21 06:57:21;;;;;;;0.88;0.30;;;;;;;-145.06;100.00;60892.56;4832076;28;20046;-88
2022/08/21 07:00:01;;;;;;;0.82;0.30;;;;;;;-145.06;100.00;60892.56;4830002;28;20034;-88
2022/08/21 07:02:40;;;;;;;1.45;0.40;;;;;;;-145.06;100.00;60892.56;4836074;28;20033;-87
2022/08/21 07:05:19;;;;;;;0.90;0.50;;;;;;;-145.06;100.00;60892.56;4833696;28;20037;-87
2022/08/21 07:07:59;;;;;;;0.52;0.30;;;;;;;-145.06;100.00;60892.56;4845650;28;20046;-88
2022/08/21 07:10:38;;;;;;;1.40;0.40;;;;;;;-145.06;100.00;60892.56;4835138;28;20022;-87
2022/08/21 07:13:17;;;;;;;0.73;0.40;;;;;;;-145.06;100.00;60892.56;4838495;28;20037;-87
2022/08/21 07:15:56;;;;;;;6.30;0.50;;;;;;;-145.06;100.00;60892.56;4832925;28;20030;-87
2022/08/21 07:18:35;;;;;;;1.10;0.32;;;;;;;-145.06;100.00;60892.56;4836286;28;20069;-88
2022/08/21 07:21:15;;;;;;;0.60;0.30;;;;;;;-145.06;100.00;60892.56;4847703;28;20033;-88
2022/08/21 07:23:54;;;;;;;1.50;0.40;;;;;;;-145.06;100.00;60892.56;4855407;28;20476;-88
2022/08/21 07:26:33;;;;;;;2.35;0.38;;;;;;;-145.06;100.00;60892.56;4844316;28;20190;-87
2022/08/21 07:29:12;;;;;;;1.67;0.30;;;;;;;-145.06;100.00;60892.56;4831606;28;20034;-87
2022/08/21 07:31:50;;;;;;;0.50;0.30;;;;;;;-145.06;100.00;60892.56;4842590;28;20117;-88
2022/08/21 07:34:29;;;;;;;1.53;0.50;;;;;;;-145.06;100.00;60892.56;4832216;28;20340;-88
2022/08/21 07:37:08;;;;;;;0.60;0.30;;;;;;;-145.06;100.00;60892.56;4837617;28;20030;-88
2022/08/21 07:39:48;;;;;;;1.02;0.38;;;;;;;-145.06;100.00;60892.56;4832615;28;20555;-87
2022/08/21 07:42:27;;;;;;;0.52;0.35;;;;;;;-145.06;100.00;60892.56;4834477;28;20065;-88
2022/08/21 07:45:07;;;;;;;0.98;0.30;;;;;;;-145.06;100.00;60892.56;4836389;28;20033;-87
2022/08/21 07:47:47;;;;;;;0.73;0.40;;;;;;;-145.06;100.00;60892.56;4832914;28;20105;-89
2022/08/21 07:50:26;;;;;;;0.75;0.50;;;;;;;-145.06;100.00;60892.56;4836819;28;20038;-87
2022/08/21 07:53:05;;;;;;;1.38;0.50;;;;;;;-145.06;100.00;60892.56;4835597;28;20124;-88
2022/08/21 07:55:44;;;;;;;0.90;0.30;;;;;;;-145.06;100.00;60892.56;4832782;28;20105;-88
2022/08/21 07:58:23;;;;;;;1.33;0.52;;;;;;;-145.06;100.00;60892.56;4833542;28;20268;-87
2022/08/21 08:01:04;;;;;;;1.38;0.40;;;;;;;-145.06;100.00;60892.56;4835388;28;20037;-87
2022/08/21 08:03:44;;;;;;;0.65;0.20;;;;;;;-145.06;100.00;60892.56;4829387;28;20109;-87
2022/08/21 08:06:24;;;;;;;1.25;0.30;;;;;;;-145.06;100.00;60892.56;4835394;28;20041;-88
2022/08/21 08:09:03;;;;;;;2.80;0.50;;;;;;;-145.06;100.00;60892.56;4834304;28;20033;-88
2022/08/21 08:11:43;;;;;;;0.70;0.40;;;;;;;-145.06;100.00;60892.56;4826667;28;20038;-88
2022/08/21 08:14:22;;;;;;;0.40;0.30;;;;;;;-145.06;100.00;60892.56;4831916;28;20116;-88
2022/08/21 08:17:02;;;;;;;0.88;0.47;;;;;;;-145.06;100.00;60892.56;4835854;28;20160;-88
2022/08/21 08:19:41;;;;;;;0.98;0.30;;;;;;;-145.06;100.00;60892.56;4836947;28;20033;-88
2022/08/21 08:22:23;;;;;;;1.75;0.38;;;;;;;-145.06;100.00;60892.56;4832456;28;20065;-88
2022/08/21 08:25:03;;;;;;;0.52;0.20;;;;;;;-145.06;100.00;60892.56;4834149;28;20041;-88
2022/08/21 08:27:42;;;;;;;0.68;0.20;;;;;;;-145.06;100.00;60892.56;4829970;28;20587;-88
2022/08/21 08:30:23;;;;;;;1.73;0.30;;;;;;;-145.06;100.00;60892.56;4855183;28;20030;-88
2022/08/21 08:33:02;;;;;;;1.60;0.38;;;;;;;-145.06;100.00;60892.56;4862340;28;20033;-87
2022/08/21 08:35:44;;;;;;;0.75;0.25;;;;;;;-145.06;100.00;60892.56;4829808;28;20070;-87
2022/08/21 08:38:25;;;;;;;0.30;0.22;;;;;;;-145.06;100.00;60892.56;4829814;28;20077;-86
2022/08/21 08:41:12;;;;;;;1.80;0.50;;;;;;;-145.06;100.00;60892.56;4832962;28;20120;-87
2022/08/21 08:43:55;;;;;;;1.10;0.50;;;;;;;-145.06;100.00;60892.56;4854161;28;20034;-88
2022/08/21 08:46:45;;;;;;;1.63;0.60;;;;;;;-145.06;100.00;60892.56;4832585;28;20037;-89
2022/08/21 08:49:31;;;;;;;0.60;0.40;;;;;;;-145.06;100.00;60892.56;4834207;28;20088;-88
2022/08/21 08:52:28;;;;;;;1.00;0.50;;;;;;;-145.06;100.00;60892.56;4835416;28;20112;-90
2022/08/21 08:55:12;;;;;;;0.32;0.20;;;;;;;-145.06;100.00;60892.56;4831253;28;20026;-89
2022/08/21 08:57:53;;;;;;;1.33;0.38;;;;;;;-145.06;100.00;60892.56;4830511;28;20022;-89
2022/08/21 09:00:32;;;;;;;1.90;0.20;;;;;;;-145.06;100.00;60892.56;4842836;28;20026;-89
2022/08/21 09:03:12;;;;;;;0.50;0.13;;;;;;;-145.06;100.00;60892.56;4837076;28;20025;-89
2022/08/21 09:06:19;;;;;;;0.65;0.20;;;;;;;-145.06;100.00;60892.56;4831780;28;20100;-88
2022/08/21 09:09:08;;;;;;;0.98;0.45;;;;;;;-145.06;100.00;60892.56;4830469;28;20108;-89
2022/08/21 09:11:51;;;;;;;1.48;0.40;;;;;;;-145.06;100.00;60892.56;4847443;28;20030;-88
2022/08/21 09:14:42;;;;;;;2.25;0.63;;;;;;;-145.06;100.00;60892.56;4829739;28;20026;-88
2022/08/21 09:17:39;;;;;;;1.95;0.50;;;;;;;-145.06;100.00;60892.56;4845844;28;20021;-89
2022/08/21 09:20:28;;;;;;;1.95;0.85;;;;;;;-145.06;100.00;60892.56;4834505;28;20029;-89
2022/08/21 09:23:49;;;;;;;0.95;0.40;;;;;;;-145.06;100.00;60892.56;4834474;28;20033;-88
2022/08/21 09:26:49;;;;;;;0.50;0.30;;;;;;;-145.06;100.00;60892.56;4834677;28;20519;-88
2022/08/21 09:29:31;;;;;;;0.90;0.32;;;;;;;-145.06;100.00;60892.56;4832448;28;20045;-87
2022/08/21 09:32:19;;;;;;;0.50;0.28;;;;;;;-145.06;100.00;60892.56;4835419;28;20037;-89
2022/08/21 09:35:05;;;;;;;2.00;0.30;;;;;;;-145.06;100.00;60892.56;4828333;28;20026;-89
2022/08/21 09:37:49;;;;;;;0.82;0.30;;;;;;;-145.06;100.00;60892.56;4836831;28;20057;-88
2022/08/21 09:40:30;;;;;;;1.25;0.35;;;;;;;-145.06;100.00;60892.56;4845172;28;20038;-89
2022/08/21 09:43:19;;;;;;;1.55;0.28;;;;;;;-145.06;100.00;60892.56;4833095;28;20041;-89
2022/08/21 09:46:11;;;;;;;0.28;0.20;;;;;;;-145.06;100.00;60892.56;4836762;28;20049;-89
2022/08/21 09:48:53;;;;;;;1.38;0.30;;;;;;;-145.06;100.00;60892.56;4828937;28;20522;-89
2022/08/21 09:51:35;;;;;;;0.57;0.30;;;;;;;-145.06;100.00;60892.56;4832392;28;20030;-90
2022/08/21 09:54:18;;;;;;;1.00;0.30;;;;;;;-145.06;100.00;60892.56;4859568;28;20057;-89
2022/08/21 10:00:15;;;;;;;1.05;0.45;;;;;;;-145.06;100.00;60892.56;4831035;28;20030;-89
2022/08/21 10:02:54;;;;;;;0.88;0.20;;;;;;;-145.06;100.00;60892.56;4828681;28;20109;-89
2022/08/21 10:05:33;;;;;;;0.60;0.20;;;;;;;-145.06;100.00;60892.56;4827232;28;20030;-88
2022/08/21 10:08:20;;;;;;;0.80;0.50;;;;;;;-145.06;100.00;60892.56;4828087;28;20041;-89
2022/08/21 10:11:06;;;;;;;0.85;0.25;;;;;;;-145.06;100.00;60892.56;4829266;28;20029;-87
2022/08/21 10:14:06;;;;;;;0.85;0.38;;;;;;;-145.06;100.00;60892.56;4832200;28;20037;-89
2022/08/21 10:17:05;;;;;;;1.98;0.57;;;;;;;-145.06;100.00;60892.56;4831247;28;20029;-89
2022/08/21 10:20:02;;;;;;;0.97;0.30;;;;;;;-145.06;100.00;60892.56;4836493;28;20515;-88
2022/08/21 10:23:04;;;;;;;0.88;0.30;;;;;;;-145.06;100.00;60892.56;4843272;28;20268;-89
2022/08/21 10:26:02;;;;;;;0.35;0.30;;;;;;;-145.06;100.00;60892.56;4832551;28;20050;-89
2022/08/21 10:28:46;;;;;;;0.70;0.40;;;;;;;-145.06;100.00;60892.56;4824164;28;20037;-89
2022/08/21 10:31:37;;;;;;;0.75;0.30;;;;;;;-145.06;100.00;60892.56;4835044;28;20030;-90
2022/08/21 10:34:16;;;;;;;0.73;0.30;;;;;;;-145.06;100.00;60892.56;4832190;28;20037;-88
2022/08/21 10:37:27;;;;;;;0.77;0.30;;;;;;;-145.06;100.00;60892.56;4837507;28;20026;-89
2022/08/21 10:40:32;;;;;;;0.88;0.38;;;;;;;-145.06;100.00;60892.56;4832991;28;20084;-90
2022/08/21 10:43:35;;;;;;;1.42;0.50;;;;;;;-145.06;100.00;60892.56;4830357;28;20927;-89
2022/08/21 10:46:31;;;;;;;0.77;0.40;;;;;;;-145.06;100.00;60892.56;4826853;28;20029;-89
2022/08/21 10:49:29;;;;;;;0.75;0.30;;;;;;;-145.06;100.00;60892.56;4831882;28;20038;-90
2022/08/21 10:52:14;;;;;;;0.47;0.20;;;;;;;-145.06;100.00;60892.56;4830884;28;20034;-89
2022/08/21 10:55:12;;;;;;;0.13;0.13;;;;;;;-145.06;100.00;60892.56;4833031;28;20404;-89
2022/08/21 10:57:57;;;;;;;0.43;0.20;;;;;;;-145.06;100.00;60892.56;4830656;28;20053;-90
2022/08/21 11:00:43;;;;;;;1.35;0.40;;;;;;;-145.06;100.00;60892.56;4831495;28;20037;-90
2022/08/21 11:03:38;;;;;;;0.38;0.30;;;;;;;-145.06;100.00;60892.56;4832579;28;20037;-90
2022/08/21 11:06:23;;;;;;;1.70;0.38;;;;;;;-145.06;100.00;60892.56;4830070;28;20030;-91
2022/08/21 11:09:13;;;;;;;0.95;0.30;;;;;;;-145.06;100.00;60892.56;4829238;28;20030;-90
2022/08/21 11:12:02;;;;;;;0.95;0.38;;;;;;;-145.06;100.00;60892.56;4844199;28;20030;-90
2022/08/21 11:14:48;;;;;;;;;;;;;;;-145.06;100.00;60892.56;4830327;28;20531;-90
2022/08/21 11:17:43;;;;;;;0.93;0.40;;;;;;;-145.06;100.00;60892.56;4830810;28;19984;-90
2022/08/21 11:20:43;;;;;;;0.65;0.30;;;;;;;-145.06;100.00;60892.56;4829266;28;20413;-89
2022/08/21 11:23:33;;;;;;;0.60;0.40;;;;;;;-145.06;100.00;60892.56;4833626;28;20037;-90
2022/08/21 11:26:31;;;;;;;0.47;0.28;;;;;;;-145.06;100.00;60892.56;4830571;28;20033;-90
2022/08/21 11:29:19;;;;;;;0.20;0.20;;;;;;;-145.06;100.00;60892.56;4838335;28;20495;-90
2022/08/21 11:32:20;;;;;;;0.70;0.40;;;;;;;-145.06;100.00;60892.56;4833170;28;20065;-91
2022/08/21 11:35:08;;;;;;;0.22;0.20;;;;;;;-145.06;100.00;60892.56;4838838;28;20033;-90
2022/08/21 11:38:17;;;;;;;0.50;0.20;;;;;;;-145.06;100.00;60892.56;4830973;28;20053;-88
2022/08/21 11:44:49;;;;;;;0.88;0.20;;;;;;;-145.06;100.00;60892.56;4773759;29;20031;-89
2022/08/21 11:47:31;;;;;;;0.60;0.30;;;;;;;-145.06;100.00;60892.56;4774626;28;20031;-89
2022/08/21 11:50:22;;;;;;;1.38;0.40;;;;;;;-145.06;100.00;60892.56;4840673;28;20097;-88
2022/08/21 11:53:07;;;;;;;0.65;0.22;;;;;;;-145.06;100.00;60892.56;4829347;28;20034;-88
2022/08/21 11:55:57;;;;;;;1.83;0.43;;;;;;;-145.06;100.00;60892.56;4832266;28;20042;-87
2022/08/21 11:58:42;;;;;;;0.28;0.25;;;;;;;-145.06;100.00;60892.56;4830800;28;20053;-88
2022/08/21 12:01:27;;;;;;;1.13;0.40;;;;;;;-145.06;100.00;60892.56;4863702;28;20037;-87
2022/08/21 12:04:46;;;;;;;0.85;0.40;;;;;;;-145.06;100.00;60892.56;4841241;28;20077;-91
2022/08/21 12:07:34;;;;;;;0.73;0.20;;;;;;;-145.06;100.00;60892.56;4835044;28;20042;-88
2022/08/21 12:10:20;;;;;;;1.15;0.30;;;;;;;-145.06;100.00;60892.56;4837340;28;20025;-87
2022/08/21 12:13:22;;;;;;;1.40;0.60;;;;;;;-145.06;100.00;60892.56;4833321;28;20029;-86
2022/08/21 12:16:10;;;;;;;0.22;0.20;;;;;;;-145.06;100.00;60892.56;4831257;28;20025;-87
2022/08/21 12:19:01;;;;;;;0.25;0.10;;;;;;;-145.06;100.00;60892.56;4834536;28;20068;-86
2022/08/21 12:21:57;;;;;;;0.70;0.20;;;;;;;-145.06;100.00;60892.56;4866529;28;20030;-88
2022/08/21 12:24:41;;;;;;;0.85;0.30;;;;;;;-145.06;100.00;60892.56;4878515;28;20285;-89
2022/08/21 12:28:01;;;;;;;0.80;0.40;;;;;;;-145.06;100.00;60892.56;4847946;28;20034;-92
2022/08/21 12:30:43;;;;;;;1.42;0.40;;;;;;;-145.06;100.00;60892.56;4840791;28;20022;-88